Time;durP1;ratioP1;P1;durP2;ratioP2;P2;SDS_P1;SDS_P2;PMS_P1;PMS_P2;Temp;Humidity;BMP_temperature;BMP_pressure;BME280_temperature;BME280_humidity;BME280_pressure;Samples;Min_cycle;Max_cycle;Signal;HPM_P1;HPM_P2
2023/09/16 00:00:36;;;;;;;;;;;;;;;21.39;100.00;97923.25;5035744;28;20406;-80
2023/09/16 00:03:04;;;;;;;;;;;;;;;21.38;100.00;97924.41;5042198;28;19936;-79
2023/09/16 00:05:31;;;;;;;;;;;;;;;21.41;100.00;97928.38;5054727;28;19984;-80
2023/09/16 00:07:57;;;;;;;;;;;;;;;21.40;100.00;97918.63;5038017;28;19987;-80
2023/09/16 00:10:24;;;;;;;;;;;;;;;21.38;100.00;97927.13;5040821;28;19929;-80
2023/09/16 00:12:50;;;;;;;;;;;;;;;21.33;100.00;97927.31;5042659;28;19925;-79
2023/09/16 00:15:16;;;;;;;;;;;;;;;21.34;100.00;97920.75;5042898;28;19925;-79
2023/09/16 00:17:44;;;;;;;;;;;;;;;21.33;100.00;97924.59;5045440;28;19921;-79
2023/09/16 00:20:15;;;;;;;;;;;;;;;21.33;100.00;97921.88;5045310;28;19925;-79
2023/09/16 00:22:42;;;;;;;;;;;;;;;21.33;100.00;97930.00;5042456;28;19958;-79
2023/09/16 00:25:09;;;;;;;;;;;;;;;21.32;100.00;97922.22;5041140;28;19921;-79
2023/09/16 00:27:35;;;;;;;;;;;;;;;21.30;100.00;97921.72;5046864;28;19961;-79
2023/09/16 00:30:15;;;;;;;;;;;;;;;21.30;100.00;97919.81;5046081;28;19963;-79
2023/09/16 00:32:42;;;;;;;;;;;;;;;21.29;100.00;97923.66;5043896;28;19926;-79
2023/09/16 00:35:14;;;;;;;;;;;;;;;21.27;100.00;97912.34;5044481;28;19925;-80
2023/09/16 00:37:41;;;;;;;;;;;;;;;21.12;100.00;97909.41;5047136;28;19988;-80
2023/09/16 00:40:08;;;;;;;;;;;;;;;20.99;100.00;97901.19;5047198;28;19932;-79
2023/09/16 00:42:37;;;;;;;;;;;;;;;20.90;100.00;97902.34;5044451;28;19945;-79
2023/09/16 00:45:10;;;;;;;;;;;;;;;21.02;100.00;97905.13;5043755;28;19926;-79
2023/09/16 00:47:36;;;;;;;;;;;;;;;20.75;100.00;97898.31;5047749;28;19925;-79
2023/09/16 00:50:18;;;;;;;;;;;;;;;20.45;100.00;97902.16;5044871;28;19925;-79
2023/09/16 00:52:49;;;;;;;;;;;;;;;20.20;100.00;97898.41;5041964;28;19925;-79
2023/09/16 00:55:19;;;;;;;;;;;;;;;20.52;100.00;97896.22;5043799;28;19977;-79
2023/09/16 00:57:48;;;;;;;;;;;;;;;20.55;100.00;97895.56;5048304;28;20008;-79
2023/09/16 01:00:29;;;;;;;;;;;;;;;20.59;100.00;97891.84;5044389;28;19921;-79
2023/09/16 01:02:57;;;;;;;;;;;;;;;20.71;100.00;97888.44;5042275;28;19929;-80
2023/09/16 01:05:28;;;;;;;;;;;;;;;20.70;100.00;97886.84;5045448;28;19929;-79
2023/09/16 01:07:54;;;;;;;;;;;;;;;20.46;100.00;97882.81;5045626;28;19988;-79
2023/09/16 01:10:22;;;;;;;;;;;;;;;20.37;100.00;97881.28;5043516;28;19936;-79
2023/09/16 01:12:49;;;;;;;;;;;;;;;20.60;100.00;97889.94;5042621;28;19925;-79
2023/09/16 01:15:18;;;;;;;;;;;;;;;20.73;100.00;97892.44;5045947;28;19989;-79
2023/09/16 01:18:05;;;;;;;;;;;;;;;20.80;100.00;97894.59;5045578;28;19947;-79
2023/09/16 01:20:33;;;;;;;;;;;;;;;20.86;100.00;97891.34;5041546;28;19993;-80
2023/09/16 01:23:00;;;;;;;;;;;;;;;20.89;100.00;97895.31;5048341;28;19929;-80
2023/09/16 01:25:29;;;;;;;;;;;;;;;20.89;100.00;97881.75;5044589;28;19921;-80
2023/09/16 01:27:55;;;;;;;;;;;;;;;20.90;100.00;97880.63;5045303;28;19925;-80
2023/09/16 01:30:37;;;;;;;;;;;;;;;20.89;100.00;97884.47;5041934;28;19925;-80
2023/09/16 01:33:08;;;;;;;;;;;;;;;20.70;100.00;97889.56;5057905;28;19921;-80
2023/09/16 01:35:37;;;;;;;;;;;;;;;20.69;100.00;97891.47;5034775;28;19960;-80
2023/09/16 01:38:07;;;;;;;;;;;;;;;20.65;100.00;97885.13;5032541;28;19925;-80
2023/09/16 01:40:36;;;;;;;;;;;;;;;20.74;100.00;97887.78;5035762;28;19933;-79
2023/09/16 01:43:04;;;;;;;;;;;;;;;20.76;100.00;97886.34;5044559;28;19926;-79
2023/09/16 01:45:40;;;;;;;;;;;;;;;20.80;100.00;97881.81;5047750;28;19948;-79
2023/09/16 01:48:09;;;;;;;;;;;;;;;20.78;100.00;97889.50;5047115;28;19925;-79
2023/09/16 01:50:36;;;;;;;;;;;;;;;20.79;100.00;97896.53;5042466;28;20284;-79
2023/09/16 01:53:02;;;;;;;;;;;;;;;20.77;100.00;97877.06;5041256;28;19926;-79
2023/09/16 01:55:30;;;;;;;;;;;;;;;20.74;100.00;97888.56;5048277;28;19932;-79
2023/09/16 01:57:58;;;;;;;;;;;;;;;20.75;100.00;97883.94;5033066;28;19926;-79
2023/09/16 02:00:25;;;;;;;;;;;;;;;20.75;100.00;97884.75;5040121;28;19925;-79
2023/09/16 02:02:54;;;;;;;;;;;;;;;20.74;100.00;97893.19;5048065;28;19925;-80
2023/09/16 02:05:20;;;;;;;;;;;;;;;20.69;100.00;97894.19;5031300;28;20008;-80
2023/09/16 02:07:47;;;;;;;;;;;;;;;20.69;100.00;97888.78;5056277;28;19926;-79
2023/09/16 02:10:18;;;;;;;;;;;;;;;20.67;100.00;97887.50;5041015;28;19932;-79
2023/09/16 02:12:45;;;;;;;;;;;;;;;20.59;100.00;97888.34;5043203;28;19925;-79
2023/09/16 02:15:12;;;;;;;;;;;;;;;20.44;100.00;97887.78;5042916;28;19933;-79
2023/09/16 02:17:40;;;;;;;;;;;;;;;20.38;100.00;97891.81;5043067;28;19936;-79
2023/09/16 02:20:08;;;;;;;;;;;;;;;20.53;100.00;97889.66;5042586;28;19925;-79
2023/09/16 02:22:34;;;;;;;;;;;;;;;20.17;100.00;97890.94;5056438;28;19925;-79
2023/09/16 02:27:43;;;;;;;;;;;;;;;20.01;100.00;97891.78;5040279;28;19925;-79
2023/09/16 02:30:10;;;;;;;;;;;;;;;19.63;100.00;97892.50;5041435;28;19960;-79
2023/09/16 02:32:38;;;;;;;;;;;;;;;19.80;100.00;97894.41;5043997;28;19925;-79
2023/09/16 02:35:04;;;;;;;;;;;;;;;20.18;100.00;97897.94;5042723;28;19925;-80
2023/09/16 02:37:30;;;;;;;;;;;;;;;20.30;100.00;97900.78;5039436;28;19930;-80
2023/09/16 02:40:00;;;;;;;;;;;;;;;20.34;100.00;97896.28;5040507;28;19961;-80
2023/09/16 02:42:30;;;;;;;;;;;;;;;20.42;100.00;97895.44;5043622;28;19925;-80
2023/09/16 02:44:56;;;;;;;;;;;;;;;20.43;100.00;97898.97;5042413;28;20461;-80
2023/09/16 02:47:24;;;;;;;;;;;;;;;20.45;100.00;97894.81;5041620;28;19925;-79
2023/09/16 02:49:52;;;;;;;;;;;;;;;20.48;100.00;97903.41;5058720;28;19963;-79
2023/09/16 02:52:29;;;;;;;;;;;;;;;20.47;100.00;97894.47;5041538;28;19932;-79
2023/09/16 02:54:55;;;;;;;;;;;;;;;20.51;100.00;97900.06;5047184;28;20197;-79
2023/09/16 02:57:22;;;;;;;;;;;;;;;20.38;100.00;97894.53;5048776;28;19914;-79
2023/09/16 02:59:48;;;;;;;;;;;;;;;20.28;100.00;97899.50;5049289;28;19940;-79
2023/09/16 03:02:15;;;;;;;;;;;;;;;20.01;100.00;97902.63;5043334;28;19922;-79
2023/09/16 03:04:42;;;;;;;;;;;;;;;20.06;100.00;97892.38;5039923;28;19972;-79
2023/09/16 03:07:10;;;;;;;;;;;;;;;20.23;100.00;97899.69;5040522;28;19921;-79
2023/09/16 03:09:37;;;;;;;;;;;;;;;20.28;100.00;97894.09;5042884;28;19972;-79
2023/09/16 03:12:03;;;;;;;;;;;;;;;20.33;100.00;97897.41;5041963;28;19954;-79
2023/09/16 03:14:30;;;;;;;;;;;;;;;20.29;100.00;97896.50;5031445;28;20879;-79
2023/09/16 03:16:56;;;;;;;;;;;;;;;20.33;100.00;97897.41;5039324;28;19932;-79
2023/09/16 03:22:03;;;;;;;;;;;;;;;20.35;100.00;97897.91;5031288;28;19926;-79
2023/09/16 03:24:31;;;;;;;;;;;;;;;20.35;100.00;97899.81;5031309;28;19926;-79
2023/09/16 03:27:10;;;;;;;;;;;;;;;20.35;100.00;97908.75;5031713;28;19953;-79
2023/09/16 03:29:36;;;;;;;;;;;;;;;20.36;100.00;97896.75;5039716;28;19926;-79
2023/09/16 03:32:03;;;;;;;;;;;;;;;20.33;100.00;97893.94;5038836;28;19926;-80
2023/09/16 03:34:32;;;;;;;;;;;;;;;20.31;100.00;97896.94;5046882;28;19926;-79
2023/09/16 03:37:30;;;;;;;;;;;;;;;20.31;100.00;97891.53;5031081;28;19926;-79
2023/09/16 03:39:58;;;;;;;;;;;;;;;20.29;100.00;97882.94;5030643;28;19937;-79
2023/09/16 03:42:24;;;;;;;;;;;;;;;20.17;100.00;97892.84;5038308;28;20028;-79
2023/09/16 03:44:51;;;;;;;;;;;;;;;20.20;100.00;97890.28;5030259;28;19930;-79
2023/09/16 03:47:35;;;;;;;;;;;;;;;20.20;100.00;97898.41;5038213;28;19992;-80
2023/09/16 03:50:21;;;;;;;;;;;;;;;20.21;100.00;97897.28;5038524;28;19925;-80
2023/09/16 03:52:49;;;;;;;;;;;;;;;20.19;100.00;97893.31;5038303;28;19972;-80
2023/09/16 03:55:16;;;;;;;;;;;;;;;20.13;100.00;97895.41;5039985;28;20364;-80
2023/09/16 03:57:43;;;;;;;;;;;;;;;20.01;100.00;97894.50;5043299;28;19961;-79
2023/09/16 04:00:20;;;;;;;;;;;;;;;19.91;100.00;97893.72;5043996;28;19925;-80
2023/09/16 04:02:46;;;;;;;;;;;;;;;19.98;100.00;97897.84;5044564;28;20489;-79
2023/09/16 04:05:13;;;;;;;;;;;;;;;20.03;100.00;97898.47;5044701;28;19925;-79
2023/09/16 04:07:39;;;;;;;;;;;;;;;20.09;100.00;97894.44;5046732;28;19913;-79
2023/09/16 04:10:40;;;;;;;;;;;;;;;20.13;100.00;97895.41;5044491;28;19952;-79
2023/09/16 04:13:20;;;;;;;;;;;;;;;20.12;100.00;97888.38;5046035;28;19929;-79
2023/09/16 04:15:47;;;;;;;;;;;;;;;20.13;100.00;97891.88;5049323;28;19936;-79
2023/09/16 04:18:13;;;;;;;;;;;;;;;20.09;100.00;97891.75;5062339;28;19980;-79
2023/09/16 04:20:40;;;;;;;;;;;;;;;20.08;100.00;97892.88;5044584;28;19936;-79
2023/09/16 04:23:09;;;;;;;;;;;;;;;20.07;100.00;97883.16;5044101;28;19929;-79
2023/09/16 04:25:37;;;;;;;;;;;;;;;19.64;100.00;97890.59;5060902;28;19964;-79
2023/09/16 04:31:51;;;;;;;;;;;;;;;19.91;100.00;97891.00;5122670;27;20010;-71
2023/09/16 04:34:17;;;;;;;;;;;;;;;19.95;100.00;97899.31;5116865;28;20062;-71
2023/09/16 04:36:44;;;;;;;;;;;;;;;19.96;100.00;97900.88;5116974;28;19924;-71
2023/09/16 04:39:10;;;;;;;;;;;;;;;19.95;100.00;97902.00;5116724;28;19926;-71
2023/09/16 04:41:36;;;;;;;;;;;;;;;19.93;100.00;97904.22;5120499;28;19958;-71
2023/09/16 04:44:03;;;;;;;;;;;;;;;19.89;100.00;97904.09;5120346;28;19927;-71
2023/09/16 04:46:30;;;;;;;;;;;;;;;19.93;100.00;97906.94;5108360;28;19921;-72
2023/09/16 04:48:57;;;;;;;;;;;;;;;19.92;100.00;97905.38;5116859;28;19972;-71
2023/09/16 04:51:24;;;;;;;;;;;;;;;19.92;100.00;97906.16;5119503;28;19924;-71
2023/09/16 04:53:51;;;;;;;;;;;;;;;19.94;100.00;97903.91;5120170;28;19931;-72
2023/09/16 04:56:17;;;;;;;;;;;;;;;19.93;100.00;97902.31;5118388;28;19924;-71
2023/09/16 04:58:44;;;;;;;;;;;;;;;19.89;100.00;97897.88;5116799;28;19924;-72
2023/09/16 05:01:11;;;;;;;;;;;;;;;19.87;100.00;97902.81;5117330;28;19960;-72
2023/09/16 05:03:37;;;;;;;;;;;;;;;19.86;100.00;97901.25;5120230;28;19924;-72
2023/09/16 05:06:05;;;;;;;;;;;;;;;19.84;100.00;97898.03;5120282;28;19928;-72
2023/09/16 05:08:32;;;;;;;;;;;;;;;19.74;100.00;97895.69;5108145;28;19932;-72
2023/09/16 05:10:58;;;;;;;;;;;;;;;19.73;100.00;97902.22;5107969;28;19944;-71
2023/09/16 05:13:25;;;;;;;;;;;;;;;19.78;100.00;97902.03;5107884;28;19971;-71
2023/09/16 05:15:51;;;;;;;;;;;;;;;19.78;100.00;97899.31;5107906;28;19936;-71
2023/09/16 05:18:18;;;;;;;;;;;;;;;19.73;100.00;97896.81;5116167;28;19985;-71
2023/09/16 05:20:44;;;;;;;;;;;;;;;19.68;100.00;97899.69;5116222;28;19924;-71
2023/09/16 05:23:13;;;;;;;;;;;;;;;19.67;100.00;97898.91;5115837;28;19925;-71
2023/09/16 05:25:44;;;;;;;;;;;;;;;19.71;100.00;97899.81;5119583;28;19977;-71
2023/09/16 05:28:11;;;;;;;;;;;;;;;19.55;100.00;97901.47;5118575;28;19924;-72
2023/09/16 05:30:37;;;;;;;;;;;;;;;19.64;100.00;97909.56;5115696;28;19971;-72
2023/09/16 05:33:04;;;;;;;;;;;;;;;19.38;100.00;97906.84;5115971;28;19931;-72
2023/09/16 05:35:30;;;;;;;;;;;;;;;19.39;100.00;97900.34;5107704;28;19928;-71
2023/09/16 05:37:57;;;;;;;;;;;;;;;19.33;100.00;97905.13;5107927;28;19924;-71
2023/09/16 05:40:25;;;;;;;;;;;;;;;19.39;100.00;97893.03;5107913;28;19924;-71
2023/09/16 05:42:52;;;;;;;;;;;;;;;19.11;100.00;97902.56;5095571;28;19958;-71
2023/09/16 05:45:18;;;;;;;;;;;;;;;19.27;100.00;97900.97;5093659;28;19952;-72
2023/09/16 05:47:48;;;;;;;;;;;;;;;19.55;100.00;97906.09;5099453;28;19920;-72
2023/09/16 05:50:14;;;;;;;;;;;;;;;19.67;100.00;97904.31;5104379;28;19946;-72
2023/09/16 05:52:41;;;;;;;;;;;;;;;19.67;100.00;97904.31;5102792;28;19925;-72
2023/09/16 05:55:07;;;;;;;;;;;;;;;19.62;100.00;97906.41;5102411;28;19931;-72
2023/09/16 05:57:35;;;;;;;;;;;;;;;19.58;100.00;97900.03;5105529;28;19954;-71
2023/09/16 06:00:02;;;;;;;;;;;;;;;19.55;100.00;97906.88;5138656;27;19931;-71
2023/09/16 06:02:28;;;;;;;;;;;;;;;19.72;100.00;97909.53;5102182;28;19935;-72
2023/09/16 06:04:55;;;;;;;;;;;;;;;19.66;100.00;97907.31;5101831;28;19949;-72
2023/09/16 06:07:24;;;;;;;;;;;;;;;19.99;100.00;97905.69;5104275;28;19925;-72
2023/09/16 06:09:50;;;;;;;;;;;;;;;20.21;100.00;97897.28;5105325;28;19924;-72
2023/09/16 06:12:17;;;;;;;;;;;;;;;20.20;100.00;97895.69;5103340;28;19954;-72
2023/09/16 06:14:44;;;;;;;;;;;;;;;20.56;99.96;97892.50;5101402;28;19920;-72
2023/09/16 06:17:11;;;;;;;;;;;;;;;20.88;97.45;97893.75;5094363;28;19925;-71
2023/09/16 06:19:38;;;;;;;;;;;;;;;21.08;95.49;97881.28;5105544;28;19924;-71
2023/09/16 06:22:05;;;;;;;;;;;;;;;21.35;93.11;97897.09;5104803;28;19989;-71
2023/09/16 06:24:31;;;;;;;;;;;;;;;21.64;91.10;97898.88;5100290;28;20013;-72
2023/09/16 06:26:58;;;;;;;;;;;;;;;21.65;89.23;97892.34;5101775;28;19921;-72
2023/09/16 06:29:24;;;;;;;;;;;;;;;21.82;89.63;97894.84;5103885;28;20905;-72
2023/09/16 06:31:52;;;;;;;;;;;;;;;22.08;87.21;97889.16;5104934;28;19949;-71
2023/09/16 06:34:18;;;;;;;;;;;;;;;22.35;84.92;97883.88;5102816;28;19932;-72
2023/09/16 06:36:45;;;;;;;;;;;;;;;22.38;84.86;97880.47;5101198;28;20572;-72
2023/09/16 06:39:11;;;;;;;;;;;;;;;22.63;83.14;97883.16;5101922;28;20089;-72
2023/09/16 06:41:38;;;;;;;;;;;;;;;22.70;81.44;97884.22;5104559;28;19930;-72
2023/09/16 06:44:04;;;;;;;;;;;;;;;22.86;81.38;97884.31;5108989;28;19934;-72
2023/09/16 06:46:31;;;;;;;;;;;;;;;23.07;79.63;97880.28;5099763;28;19929;-72
2023/09/16 06:48:59;;;;;;;;;;;;;;;23.10;78.93;97884.25;5100997;28;19924;-72
2023/09/16 06:51:25;;;;;;;;;;;;;;;23.06;78.62;97888.78;5103951;28;19928;-72
2023/09/16 06:53:51;;;;;;;;;;;;;;;23.07;78.29;97884.94;5103676;28;19932;-72
2023/09/16 06:56:18;;;;;;;;;;;;;;;23.21;77.93;97877.16;5102418;28;19946;-72
2023/09/16 06:58:44;;;;;;;;;;;;;;;23.03;78.37;97878.59;5100969;28;19925;-72
2023/09/16 07:01:11;;;;;;;;;;;;;;;22.89;80.65;97878.97;5100746;28;19928;-71
2023/09/16 07:03:37;;;;;;;;;;;;;;;22.91;80.70;97875.91;5104222;28;20005;-72
2023/09/16 07:06:05;;;;;;;;;;;;;;;22.79;81.19;97878.66;5104155;28;19947;-72
2023/09/16 07:08:32;;;;;;;;;;;;;;;22.71;81.94;97879.56;5092156;28;19924;-72
2023/09/16 07:10:58;;;;;;;;;;;;;;;22.69;82.54;97879.09;5092059;28;19958;-72
2023/09/16 07:13:24;;;;;;;;;;;;;;;22.64;82.66;97888.28;5092103;28;19966;-72
2023/09/16 07:15:54;;;;;;;;;;;;;;;22.57;83.42;97879.88;5098363;28;19947;-72
2023/09/16 07:18:20;;;;;;;;;;;;;;;22.42;85.02;97875.94;5092027;28;19924;-72
2023/09/16 07:20:47;;;;;;;;;;;;;;;22.07;88.19;97880.22;5091949;28;19924;-72
2023/09/16 07:23:14;;;;;;;;;;;;;;;21.80;90.60;97880.81;5093131;28;19974;-72
2023/09/16 07:25:41;;;;;;;;;;;;;;;21.77;91.51;97878.78;5108885;22;19925;-83
2023/09/16 07:28:07;;;;;;;;;;;;;;;21.70;92.10;97884.75;5063842;28;19927;-83
2023/09/16 07:30:34;;;;;;;;;;;;;;;21.56;94.45;97880.75;5061949;28;19980;-82
2023/09/16 07:33:00;;;;;;;;;;;;;;;21.39;95.53;97885.22;5060041;28;19976;-82
2023/09/16 07:35:27;;;;;;;;;;;;;;;21.38;95.40;97886.38;5079306;28;19955;-83
2023/09/16 07:37:53;;;;;;;;;;;;;;;21.37;95.33;97879.34;5079908;28;19928;-83
2023/09/16 07:40:21;;;;;;;;;;;;;;;21.33;95.82;97878.41;5062175;28;19921;-83
2023/09/16 07:48:11;;;;;;;;;;;;;;;21.02;100.00;97886.13;5061072;28;19925;-82
2023/09/16 07:50:40;;;;;;;;;;;;;;;20.95;100.00;97885.88;5059510;28;20036;-82
2023/09/16 07:53:23;;;;;;;;;;;;;;;20.97;100.00;97891.78;5075511;28;19921;-82
2023/09/16 07:55:55;;;;;;;;;;;;;;;21.03;100.00;97890.44;5062390;28;19990;-82
2023/09/16 07:58:24;;;;;;;;;;;;;;;21.07;100.00;97891.38;5059240;28;19925;-83
2023/09/16 08:01:25;;;;;;;;;;;;;;;21.13;100.00;97894.72;5075697;28;19935;-84
2023/09/16 08:03:52;;;;;;;;;;;;;;;20.98;100.00;97887.94;5063059;28;19924;-82
2023/09/16 08:06:18;;;;;;;;;;;;;;;21.17;100.00;97895.66;5060379;28;19951;-83
2023/09/16 08:08:49;;;;;;;;;;;;;;;21.17;100.00;97895.66;5058881;28;19925;-82
2023/09/16 08:11:17;;;;;;;;;;;;;;;21.10;100.00;97890.75;5060471;28;20355;-82
2023/09/16 08:13:54;;;;;;;;;;;;;;;21.04;100.00;97892.06;5061469;28;19977;-82
2023/09/16 08:16:28;;;;;;;;;;;;;;;21.02;100.00;97886.13;5050878;28;19964;-82
2023/09/16 08:18:54;;;;;;;;;;;;;;;20.91;100.00;97885.75;5057737;28;19932;-82
2023/09/16 08:21:26;;;;;;;;;;;;;;;20.94;100.00;97892.44;5076798;28;19925;-82
2023/09/16 08:29:18;;;;;;;;;;;;;;;20.63;100.00;97892.81;5059511;28;19948;-82
2023/09/16 08:31:46;;;;;;;;;;;;;;;20.75;100.00;97898.31;5061387;28;19957;-82
2023/09/16 08:34:13;;;;;;;;;;;;;;;20.79;100.00;97898.44;5060177;28;20429;-82
2023/09/16 08:36:59;;;;;;;;;;;;;;;20.84;100.00;97899.03;5058392;28;19953;-82
2023/09/16 08:39:25;;;;;;;;;;;;;;;20.81;100.00;97904.34;5077480;28;19936;-83
2023/09/16 08:42:07;;;;;;;;;;;;;;;20.72;100.00;97900.88;5061187;28;19924;-83
2023/09/16 08:45:07;;;;;;;;;;;;;;;20.79;100.00;97901.97;5050667;28;19952;-83
2023/09/16 08:47:34;;;;;;;;;;;;;;;20.89;100.00;97898.03;5066130;28;19964;-80
2023/09/16 08:50:04;;;;;;;;;;;;;;;20.82;100.00;97900.50;5050444;28;19944;-79
2023/09/16 08:52:35;;;;;;;;;;;;;;;20.83;100.00;97899.34;5059112;28;19925;-80
2023/09/16 08:55:02;;;;;;;;;;;;;;;20.82;100.00;97900.50;5060238;28;19948;-80
2023/09/16 08:57:29;;;;;;;;;;;;;;;20.83;100.00;97907.50;5078270;28;19925;-80
2023/09/16 08:59:57;;;;;;;;;;;;;;;20.83;100.00;97907.50;5081163;28;19920;-80
2023/09/16 09:02:26;;;;;;;;;;;;;;;20.69;100.00;97896.13;5062539;28;19949;-79
2023/09/16 09:04:52;;;;;;;;;;;;;;;20.64;100.00;97893.59;5079455;28;19925;-80
2023/09/16 09:07:20;;;;;;;;;;;;;;;20.63;100.00;97897.44;5065992;28;19932;-80
2023/09/16 09:09:46;;;;;;;;;;;;;;;20.66;100.00;97896.78;5084315;28;19925;-82
2023/09/16 09:12:33;;;;;;;;;;;;;;;20.74;100.00;97895.91;5063681;28;19914;-82
2023/09/16 09:15:04;;;;;;;;;;;;;;;20.79;100.00;97901.16;5078468;28;19922;-82
2023/09/16 09:17:34;;;;;;;;;;;;;;;20.82;100.00;97903.22;5063109;28;19929;-82
2023/09/16 09:20:02;;;;;;;;;;;;;;;20.95;100.00;97904.91;5080590;28;19925;-82
2023/09/16 09:22:32;;;;;;;;;;;;;;;21.02;100.00;97900.50;5068107;28;19920;-82
2023/09/16 09:28:44;;;;;;;;;;;;;;;21.23;100.00;97908.69;5123776;27;19979;-71
2023/09/16 09:31:10;;;;;;;;;;;;;;;21.14;100.00;97907.16;5116777;28;19928;-71
2023/09/16 09:33:39;;;;;;;;;;;;;;;21.29;100.00;97904.63;5117282;28;19924;-71
2023/09/16 09:36:10;;;;;;;;;;;;;;;21.29;100.00;97904.63;5116843;28;19951;-71
2023/09/16 09:38:38;;;;;;;;;;;;;;;21.24;100.00;97913.00;5120174;28;19928;-72
2023/09/16 09:41:04;;;;;;;;;;;;;;;21.25;100.00;97920.03;5120386;28;19964;-72
2023/09/16 09:43:31;;;;;;;;;;;;;;;21.40;100.00;97918.63;5108130;28;19925;-72
2023/09/16 09:45:59;;;;;;;;;;;;;;;21.80;100.00;97921.59;5108389;28;19924;-72
2023/09/16 09:48:25;;;;;;;;;;;;;;;21.76;100.00;97915.22;5116829;28;19935;-72
2023/09/16 09:50:52;;;;;;;;;;;;;;;21.65;100.00;97911.34;5116722;28;19921;-71
2023/09/16 09:53:18;;;;;;;;;;;;;;;21.70;100.00;97905.69;5118295;28;19925;-71
2023/09/16 09:55:44;;;;;;;;;;;;;;;22.15;100.00;97897.56;5120089;28;19924;-72
2023/09/16 09:58:11;;;;;;;;;;;;;;;22.40;100.00;97893.75;5119257;28;19924;-72
2023/09/16 10:00:46;;;;;;;;;;;;;;;22.75;100.00;97904.97;5116362;28;20042;-72
2023/09/16 10:03:13;;;;;;;;;;;;;;;22.32;100.00;97887.25;5117357;28;19952;-71
2023/09/16 10:05:40;;;;;;;;;;;;;;;22.12;100.00;97896.34;5119767;28;20014;-71
2023/09/16 10:08:06;;;;;;;;;;;;;;;22.18;100.00;97892.25;5119484;28;19970;-71
2023/09/16 10:10:33;;;;;;;;;;;;;;;22.26;100.00;97888.63;5115105;28;19946;-71
2023/09/16 10:12:59;;;;;;;;;;;;;;;22.16;100.00;97893.72;5115984;28;19924;-71
2023/09/16 10:15:26;;;;;;;;;;;;;;;22.96;100.00;97883.84;5145922;22;19929;-72
2023/09/16 10:17:53;;;;;;;;;;;;;;;22.82;100.00;97886.13;5058961;28;20129;-72
2023/09/16 10:20:22;;;;;;;;;;;;;;;22.60;100.00;97882.72;5057302;28;19929;-71
2023/09/16 10:22:48;;;;;;;;;;;;;;;22.64;100.00;97876.59;5056291;28;19948;-71
2023/09/16 10:25:15;;;;;;;;;;;;;;;23.53;100.00;97870.72;5057365;28;19932;-71
2023/09/16 10:27:48;;;;;;;;;;;;;;;23.67;100.00;97871.09;5059043;28;19936;-71
2023/09/16 10:30:17;;;;;;;;;;;;;;;23.39;100.00;97870.34;5057319;28;19925;-72
2023/09/16 10:32:44;;;;;;;;;;;;;;;23.64;100.00;97871.78;5055443;28;19987;-72
2023/09/16 10:35:10;;;;;;;;;;;;;;;24.13;99.49;97864.16;5055177;28;19929;-72
2023/09/16 10:37:38;;;;;;;;;;;;;;;23.88;100.00;97864.63;5058158;28;19925;-72
2023/09/16 10:40:06;;;;;;;;;;;;;;;24.04;99.79;97868.97;5044917;28;19952;-72
2023/09/16 10:42:33;;;;;;;;;;;;;;;24.54;94.74;97862.78;5033857;28;19925;-72
2023/09/16 10:45:02;;;;;;;;;;;;;;;23.91;99.01;97863.91;5033814;28;20020;-72
2023/09/16 10:47:28;;;;;;;;;;;;;;;23.49;100.00;97861.66;5044907;28;19979;-72
2023/09/16 10:49:55;;;;;;;;;;;;;;;23.48;100.00;97856.56;5044985;28;19928;-72
2023/09/16 10:52:25;;;;;;;;;;;;;;;23.39;100.00;97864.06;5042778;28;19948;-71
2023/09/16 10:54:58;;;;;;;;;;;;;;;23.61;100.00;97856.13;5041970;28;19932;-72
2023/09/16 10:57:26;;;;;;;;;;;;;;;23.92;100.00;97857.34;5044687;28;19932;-71
2023/09/16 10:59:53;;;;;;;;;;;;;;;24.71;95.21;97847.94;5044815;28;19929;-71
2023/09/16 11:02:25;;;;;;;;;;;;;;;24.25;96.44;97855.06;5041795;28;19933;-71
2023/09/16 11:04:52;;;;;;;;;;;;;;;23.89;100.00;97853.34;5041808;28;19925;-71
2023/09/16 11:07:19;;;;;;;;;;;;;;;23.98;100.00;97853.19;5097006;23;19997;-71
2023/09/16 11:09:48;;;;;;;;;;;;;;;24.25;98.93;97841.44;5021523;28;19926;-72
2023/09/16 11:12:17;;;;;;;;;;;;;;;24.04;100.00;97846.34;5022565;28;19921;-72
2023/09/16 11:14:44;;;;;;;;;;;;;;;24.90;96.05;97830.81;5024733;28;19930;-72
2023/09/16 11:17:11;;;;;;;;;;;;;;;24.86;94.16;97836.22;5024645;28;19928;-73
2023/09/16 11:19:37;;;;;;;;;;;;;;;24.79;94.96;97832.53;5024841;28;20668;-72
2023/09/16 11:22:04;;;;;;;;;;;;;;;24.55;97.92;97828.88;5024818;28;19933;-73
2023/09/16 11:24:33;;;;;;;;;;;;;;;24.76;96.19;97844.16;5013066;28;19998;-72
2023/09/16 11:27:01;;;;;;;;;;;;;;;25.04;93.34;97826.44;5013395;28;19926;-72
2023/09/16 11:29:29;;;;;;;;;;;;;;;25.24;92.06;97829.97;5012898;28;19929;-72
2023/09/16 11:31:56;;;;;;;;;;;;;;;24.91;93.76;97826.94;5012865;28;19937;-72
2023/09/16 11:34:24;;;;;;;;;;;;;;;24.88;93.90;97819.47;5012661;28;19949;-72
2023/09/16 11:36:52;;;;;;;;;;;;;;;24.83;92.75;97815.06;5012972;28;19925;-71
2023/09/16 11:39:21;;;;;;;;;;;;;;;24.87;93.82;97823.34;5012591;28;19921;-72
2023/09/16 11:41:48;;;;;;;;;;;;;;;24.92;89.98;97815.66;5012418;28;19980;-72
2023/09/16 11:44:15;;;;;;;;;;;;;;;24.90;91.41;97822.63;5012620;28;20041;-73
2023/09/16 11:46:45;;;;;;;;;;;;;;;24.76;90.41;97825.03;5021739;28;19956;-73
2023/09/16 11:49:16;;;;;;;;;;;;;;;24.68;92.52;97819.41;5021481;28;19925;-73
2023/09/16 11:51:42;;;;;;;;;;;;;;;24.53;92.17;97812.06;5023479;28;20367;-72
2023/09/16 11:54:08;;;;;;;;;;;;;;;24.68;92.40;97808.50;5023575;28;19944;-72
2023/09/16 11:56:35;;;;;;;;;;;;;;;24.73;90.25;97812.09;5020634;28;19949;-71
2023/09/16 11:59:03;;;;;;;;;;;;;;;25.01;88.58;97808.03;5021249;28;19953;-71
2023/09/16 12:01:30;;;;;;;;;;;;;;;24.90;88.50;97811.69;5023982;28;19926;-72
2023/09/16 12:04:00;;;;;;;;;;;;;;;24.79;88.85;97802.47;5024295;28;19925;-72
2023/09/16 12:06:27;;;;;;;;;;;;;;;24.73;85.30;97801.19;5020804;28;19933;-72
2023/09/16 12:08:55;;;;;;;;;;;;;;;24.90;86.92;97798.03;5020234;28;19926;-72
2023/09/16 12:11:22;;;;;;;;;;;;;;;24.99;85.84;97799.41;5022316;28;19925;-72
2023/09/16 12:13:49;;;;;;;;;;;;;;;24.92;83.00;97804.72;5023892;28;19932;-72
2023/09/16 12:16:16;;;;;;;;;;;;;;;24.69;84.86;97793.69;5023279;28;19948;-72
2023/09/16 12:18:43;;;;;;;;;;;;;;;24.68;85.26;97794.84;5020245;28;20012;-73
2023/09/16 12:21:12;;;;;;;;;;;;;;;24.73;83.56;97788.28;5020731;28;19961;-72
2023/09/16 12:23:40;;;;;;;;;;;;;;;24.75;86.21;97790.69;5023861;28;19953;-72
2023/09/16 12:26:08;;;;;;;;;;;;;;;24.78;78.63;97787.22;5006305;28;19925;-72
2023/09/16 12:28:34;;;;;;;;;;;;;;;24.79;80.19;97784.13;5020519;28;19933;-72
2023/09/16 12:31:00;;;;;;;;;;;;;;;24.84;77.53;97792.09;5020551;28;19993;-72
2023/09/16 12:33:38;;;;;;;;;;;;;;;24.86;75.67;97783.50;5023559;28;19937;-72
2023/09/16 12:36:04;;;;;;;;;;;;;;;24.84;79.74;97783.09;5023895;28;20013;-71
2023/09/16 12:38:32;;;;;;;;;;;;;;;24.98;81.22;97786.91;5012146;28;19961;-72
2023/09/16 12:40:59;;;;;;;;;;;;;;;25.03;82.35;97778.44;5012033;28;19930;-72
2023/09/16 12:43:25;;;;;;;;;;;;;;;25.06;80.50;97779.66;5012159;28;19926;-73
2023/09/16 12:45:52;;;;;;;;;;;;;;;25.04;77.76;97779.19;5019824;28;19925;-72
2023/09/16 12:48:19;;;;;;;;;;;;;;;25.14;69.86;97773.16;5021705;28;19976;-71
2023/09/16 12:50:46;;;;;;;;;;;;;;;25.12;65.40;97770.81;5003026;28;19925;-71
2023/09/16 12:53:12;;;;;;;;;;;;;;;25.12;67.94;97775.47;5021316;28;19926;-71
2023/09/16 12:55:41;;;;;;;;;;;;;;;25.17;68.36;97765.03;5023535;28;19979;-72
2023/09/16 12:58:08;;;;;;;;;;;;;;;25.19;67.15;97770.16;5023113;28;20404;-71
2023/09/16 13:00:34;;;;;;;;;;;;;;;25.15;61.82;97767.34;5019834;28;19926;-72
2023/09/16 13:03:01;;;;;;;;;;;;;;;25.23;61.13;97765.53;5019593;28;19988;-72
2023/09/16 13:05:27;;;;;;;;;;;;;;;25.24;65.20;97761.66;5022354;28;19936;-74
2023/09/16 13:07:56;;;;;;;;;;;;;;;25.27;61.26;97760.91;5023141;28;19922;-72
2023/09/16 13:10:23;;;;;;;;;;;;;;;25.28;62.13;97767.19;5020991;28;19988;-72